DW6273 Weather Reports


Display with metric or nautical units.
time (UTC)temp
F
wind
direction
speed
MPH
gust
MPH
rain 1hr
in
rain 24hr
in
rain mn
in
humidity
%
barometer
mb
20210731061606 75 360 0.0 1.0 0.00 0.00 0.00 50 1027.2
20210731060114 76 360 2.0 4.0 0.00 0.00 0.00 49 1027.3
20210731054537 76 360 0.0 0.0 0.00 0.00 0.00 48 1027.6
20210731053037 77 360 0.0 4.0 0.00 0.00 0.00 45 1027.4
20210731051530 78 360 1.0 5.0 0.00 0.00 0.00 44 1027.2
20210731050145 78 360 2.0 4.0 0.00 0.00 0.00 44 1027.4
20210731044600 79 360 0.0 1.0 0.00 0.00 0.00 43 1027.4
20210731043037 79 360 0.0 0.0 0.00 0.00 0.00 43 1027.2
20210731041525 79 360 0.0 1.0 0.00 0.00 0.00 42 1027.0
20210731040110 80 360 0.0 0.0 0.00 0.00 0.00 42 1027.0
20210731034529 80 360 0.0 1.0 0.00 0.00 0.00 41 1027.0
20210731033021 81 360 0.0 1.0 0.00 0.00 0.00 40 1026.9
20210731031524 81 360 0.0 2.0 0.00 0.00 0.00 40 1026.9
20210731030054 82 248 0.0 2.0 0.00 0.00 0.00 39 1026.8
20210731024536 82 249 0.0 1.0 0.00 0.00 0.00 38 1026.8
20210731023047 83 249 0.0 3.0 0.00 0.00 0.00 37 1026.9
20210731021541 83 238 2.0 8.0 0.00 0.00 0.00 37 1027.2
20210731020030 83 273 3.0 12.0 0.00 0.00 0.00 38 1027.2
20210731014551 82 261 10.0 28.0 0.00 0.00 0.00 39 1027.0
20210731013018 83 270 10.0 19.0 0.00 0.00 0.00 36 1027.0
20210731011536 84 265 3.0 8.0 0.00 0.00 0.00 36 1027.1
20210731010023 85 360 0.0 3.0 0.00 0.00 0.00 36 1026.7
20210731004522 85 121 1.0 6.0 0.00 0.00 0.00 35 1026.6
20210731003021 87 360 6.0 16.0 0.00 0.00 0.00 33 1025.9
20210731001513 91 360 2.0 5.0 0.00 0.00 0.00 28 1025.4
20210731000005 92 229 3.0 7.0 0.00 0.00 0.00 26 1025.0
20210730234505 95 198 3.0 10.0 0.00 0.00 0.00 24 1024.8
20210730233005 95 265 7.0 10.0 0.00 0.00 0.00 23 1024.8
20210730231512 94 259 4.0 10.0 0.00 0.00 0.00 25 1025.0
20210730230009 92 250 9.0 16.0 0.00 0.00 0.00 28 1025.1
20210730224509 91 237 9.0 16.0 0.00 0.00 0.00 27 1025.3
20210730223148 91 254 9.0 15.0 0.00 0.00 0.00 30 1025.5
20210730221643 95 280 10.0 15.0 0.00 0.00 0.00 26 1025.2
20210730220242 97 92 1.0 6.0 0.00 0.00 0.00 24 1025.3
20210730214719 98 312 0.0 4.0 0.00 0.00 0.00 22 1025.2
20210730213214 96 313 0.0 3.0 0.00 0.00 0.00 23 1025.1
20210730211648 96 267 2.0 4.0 0.00 0.00 0.00 22 1025.1
20210730210112 96 239 2.0 6.0 0.00 0.00 0.00 23 1024.9
20210730204646 95 274 0.0 4.0 0.00 0.00 0.00 25 1024.7
20210730203142 95 215 1.0 4.0 0.00 0.00 0.00 24 1024.8
20210730201610 95 266 4.0 7.0 0.00 0.00 0.00 24 1024.7
20210730200136 93 44 2.0 4.0 0.00 0.00 0.00 26 1024.8
20210730194707 92 248 2.0 5.0 0.00 0.00 0.00 27 1024.7
20210730193103 93 247 2.0 6.0 0.00 0.00 0.00 26 1024.8
20210730191540 91 90 0.0 4.0 0.00 0.00 0.00 30 1024.8
20210730190033 89 360 3.0 5.0 0.00 0.00 0.00 29 1024.8
20210730184523 90 360 2.0 4.0 0.00 0.00 0.00 29 1025.1
20210730183027 89 292 1.0 4.0 0.00 0.00 0.00 30 1025.1
20210730181549 87 360 0.0 3.0 0.00 0.00 0.00 33 1025.1
20210730180040 85 360 0.0 3.0 0.00 0.00 0.00 33 1025.0
20210730174515 84 360 1.0 3.0 0.00 0.00 0.00 34 1025.1
20210730173005 83 360 0.0 3.0 0.00 0.00 0.00 37 1025.1
20210730171706 81 286 1.0 4.0 0.00 0.00 0.00 38 1025.1
20210730170221 80 276 2.0 3.0 0.00 0.00 0.00 39 1025.1
20210730164701 78 360 0.0 1.0 0.00 0.00 0.00 41 1025.1
20210730163238 78 275 1.0 3.0 0.00 0.00 0.00 43 1025.1
20210730161633 77 360 0.0 0.0 0.00 0.00 0.00 41 1025.2
20210730160235 76 360 0.0 0.0 0.00 0.00 0.00 44 1025.1
20210730154612 75 110 0.0 0.0 0.00 0.00 0.00 46 1025.3
20210730153256 73 360 0.0 0.0 0.00 0.00 0.00 47 1025.2
20210730151708 73 109 0.0 1.0 0.00 0.00 0.00 46 1025.1
20210730150135 73 110 0.0 1.0 0.00 0.00 0.00 46 1024.9
20210730144618 73 106 0.0 0.0 0.00 0.00 0.00 45 1024.8
20210730143111 72 107 0.0 0.0 0.00 0.00 0.00 46 1024.8
20210730141643 72 360 0.0 0.0 0.00 0.00 0.00 46 1024.8
20210730140207 72 360 0.0 2.0 0.00 0.00 0.00 47 1024.7
20210730134616 72 360 0.0 0.0 0.00 0.00 0.00 49 1024.5
20210730133136 73 360 0.0 2.0 0.00 0.00 0.00 46 1024.4
20210730131817 73 360 0.0 3.0 0.00 0.00 0.00 45 1024.4
20210730130055 73 360 0.0 3.0 0.00 0.00 0.00 44 1024.6
20210730124604 73 360 0.0 2.0 0.00 0.00 0.00 45 1024.6
20210730123137 74 360 0.0 1.0 0.00 0.00 0.00 47 1024.5
20210730121553 75 177 0.0 1.0 0.00 0.00 0.00 42 1024.5
20210730120106 75 176 0.0 1.0 0.00 0.00 0.00 39 1024.5
20210730114545 75 176 0.0 2.0 0.00 0.00 0.00 40 1024.6
20210730113055 76 164 0.0 3.0 0.00 0.00 0.00 39 1024.9
20210730111612 76 209 0.0 0.0 0.00 0.00 0.00 40 1025.0
20210730110044 76 215 0.0 0.0 0.00 0.00 0.00 40 1024.9
20210730104614 76 215 0.0 0.0 0.00 0.00 0.00 39 1024.8
20210730103147 76 360 0.0 1.0 0.00 0.00 0.00 40 1025.0
20210730100031 76 215 1.0 3.0 0.00 0.00 0.00 39 1025.2
20210730094526 76 140 0.0 2.0 0.00 0.00 0.00 39 1025.3
20210730093101 77 140 0.0 2.0 0.00 0.00 0.00 39 1025.3
20210730091544 77 140 0.0 1.0 0.00 0.00 0.00 38 1025.4
20210730090034 78 140 1.0 3.0 0.00 0.00 0.00 36 1025.4
20210730084516 78 121 3.0 6.0 0.00 0.00 0.00 35 1025.5
20210730083018 79 121 1.0 4.0 0.00 0.00 0.00 34 1025.6
20210730081515 79 139 1.0 3.0 0.00 0.00 0.00 34 1025.6
20210730080025 79 111 0.0 3.0 0.00 0.00 0.00 34 1025.7
20210730074511 79 153 0.0 2.0 0.00 0.00 0.00 34 1025.6
20210730073011 79 128 2.0 5.0 0.00 0.00 0.00 34 1025.4
20210730071511 80 87 0.0 1.0 0.00 0.00 0.00 34 1025.6
20210730070013 80 87 0.0 2.0 0.00 0.00 0.00 34 1025.5
20210730064502 80 87 0.0 2.0 0.00 0.00 0.00 32 1025.5
20210730063002 81 82 0.0 4.0 0.00 0.00 0.00 32 1025.7